createdAt,value
2018-03-20T00:03:56.087Z,11.03
2018-03-20T00:09:56.744Z,10.84
2018-03-20T00:13:57.519Z,10.78
2018-03-20T00:19:58.256Z,8.61
2018-03-20T00:23:58.997Z,8.13
2018-03-20T00:29:59.718Z,8.69
2018-03-20T00:36:00.445Z,8.49
2018-03-20T00:40:01.127Z,8.12
2018-03-20T00:46:02.053Z,8.55
2018-03-20T00:50:02.915Z,8.18
2018-03-20T00:56:03.720Z,5.9
2018-03-20T01:02:04.458Z,5.96
2018-03-20T01:06:05.279Z,6.2
2018-03-20T01:12:05.979Z,5.94
2018-03-20T01:16:06.799Z,5.75
2018-03-20T01:22:07.655Z,6.93
2018-03-20T01:28:08.388Z,7.53
2018-03-20T01:32:09.221Z,7.39
2018-03-20T01:38:09.933Z,8.63
2018-03-20T01:42:10.674Z,8.4
2018-03-20T01:48:11.441Z,9.91
2018-03-20T01:54:12.186Z,15.01
2018-03-20T01:58:12.940Z,14.04
2018-03-20T02:04:13.760Z,11.37
2018-03-20T02:08:14.421Z,10.35
2018-03-20T02:14:15.244Z,9.21
2018-03-20T02:20:16.039Z,8.53
2018-03-20T02:24:16.699Z,9.14
2018-03-20T02:30:17.790Z,7.79
2018-03-20T02:34:18.565Z,8.13
2018-03-20T02:40:19.321Z,10.44
2018-03-20T02:46:20.203Z,11.8
2018-03-20T02:50:21.050Z,12.39
2018-03-20T02:56:21.781Z,23.34
2018-03-20T03:00:23.135Z,23.62
2018-03-20T03:06:23.874Z,20.86
2018-03-20T03:12:24.683Z,20.28
2018-03-20T03:16:25.397Z,20.36
2018-03-20T03:22:26.105Z,16.52
2018-03-20T03:26:26.903Z,16.3
2018-03-20T03:32:27.666Z,17.17
2018-03-20T03:38:28.578Z,19.85
2018-03-20T03:42:29.324Z,19.33
2018-03-20T03:48:30.123Z,17.81
2018-03-20T03:52:30.801Z,18.83
2018-03-20T03:58:31.561Z,18.55
2018-03-20T04:04:32.214Z,14.11
2018-03-20T04:08:32.972Z,14.39
2018-03-20T04:14:33.703Z,13.55
2018-03-20T04:18:34.502Z,12.73
2018-03-20T04:24:35.254Z,9.74
2018-03-20T04:24:35.256Z,9.74
2018-03-20T04:30:35.964Z,9.44
2018-03-20T04:34:36.808Z,9.19
2018-03-20T04:40:37.543Z,8.56
2018-03-20T04:44:38.305Z,8.01
2018-03-20T04:50:38.997Z,7.81
2018-03-20T04:56:39.810Z,8.74
2018-03-20T05:00:40.565Z,8.59
2018-03-20T05:06:41.331Z,7.83
2018-03-20T05:10:42.193Z,8.23
2018-03-20T05:16:42.885Z,8.33
2018-03-20T05:22:43.682Z,7.75
2018-03-20T05:26:44.456Z,8.01
2018-03-20T05:32:45.301Z,7.93
2018-03-20T05:36:46.074Z,7.93
2018-03-20T05:42:46.864Z,7.91
2018-03-20T05:48:47.825Z,9.33
2018-03-20T05:52:48.541Z,9.05
2018-03-20T05:58:49.408Z,10.05
2018-03-20T06:02:50.140Z,9.35
2018-03-20T06:08:50.866Z,8.53
2018-03-20T06:14:51.708Z,8.87
2018-03-20T06:18:52.512Z,8.8
2018-03-20T06:24:53.319Z,7.67
2018-03-20T06:28:54.136Z,8.08
2018-03-20T06:34:55.040Z,9.28
2018-03-20T06:40:55.833Z,10.8
2018-03-20T06:44:56.680Z,9.86
2018-03-20T06:50:59.202Z,10.37
2018-03-20T06:55:00.076Z,9.77
2018-03-20T07:01:00.943Z,12.55
2018-03-20T07:07:01.818Z,11.64
2018-03-20T07:11:02.558Z,10.8
2018-03-20T07:17:03.304Z,10.76
2018-03-20T07:21:04.343Z,10.38
2018-03-20T07:27:05.234Z,12.51
2018-03-20T07:31:05.914Z,12.13
2018-03-20T07:33:08.128Z,11.03
2018-03-20T07:37:09.061Z,11.93
2018-03-20T07:43:10.023Z,9.14
2018-03-20T07:47:10.825Z,7.93
2018-03-20T07:53:11.598Z,7.45
2018-03-20T07:57:12.310Z,7.6
2018-03-20T07:59:13.132Z,7.18
2018-03-20T08:03:13.818Z,5.37
2018-03-20T08:09:14.546Z,5.4
2018-03-20T08:13:15.390Z,8.28
2018-03-20T08:19:16.203Z,2.15
2018-03-20T08:23:17.157Z,1.93
2018-03-20T08:25:17.929Z,2.52
2018-03-20T08:29:18.851Z,2.38
2018-03-20T08:35:19.625Z,2.24
2018-03-20T08:39:20.606Z,1.95
2018-03-20T08:45:21.835Z,2.26
2018-03-20T08:49:22.603Z,1.99
2018-03-20T08:51:23.437Z,3.12
2018-03-20T08:55:24.130Z,3.23
2018-03-20T09:01:24.995Z,2.4
2018-03-20T09:05:26.052Z,1.89
2018-03-20T09:11:26.916Z,2.38
2018-03-20T09:15:28.308Z,2.44
2018-03-20T09:17:29.004Z,2.5
2018-03-20T09:21:29.745Z,2.69
2018-03-20T09:27:30.408Z,2.02
2018-03-20T09:31:31.147Z,2.27
2018-03-20T09:37:31.915Z,2.1
2018-03-20T09:41:32.886Z,1.9
2018-03-20T09:43:33.592Z,1.86
2018-03-20T09:47:34.479Z,1.94
2018-03-20T09:53:35.153Z,2.52
2018-03-20T09:57:35.895Z,2.36
2018-03-20T10:03:36.731Z,2.3
2018-03-20T10:07:37.553Z,1.96
2018-03-20T10:09:38.232Z,2.48
2018-03-20T10:13:39.018Z,2.38
2018-03-20T10:19:39.810Z,2.07
2018-03-20T10:23:40.576Z,2.04
2018-03-20T10:29:41.373Z,2.56
2018-03-20T10:33:42.206Z,2.38
2018-03-20T10:35:44.555Z,2.06
2018-03-20T10:39:45.516Z,2.07
2018-03-20T10:45:46.358Z,2.08
2018-03-20T10:49:47.941Z,2.19
2018-03-20T10:55:49.473Z,2.63
2018-03-20T10:59:50.336Z,2.05
2018-03-20T11:01:51.247Z,2.59
2018-03-20T11:05:52.018Z,2.01
2018-03-20T11:11:52.889Z,1.8
2018-03-20T11:15:53.822Z,1.81
2018-03-20T11:21:54.641Z,1.98
2018-03-20T11:25:55.343Z,2.01
2018-03-20T11:27:56.040Z,2.13
2018-03-20T11:31:56.839Z,1.51
2018-03-20T11:37:57.790Z,1.99
2018-03-20T11:41:58.530Z,1.72
2018-03-20T11:47:59.247Z,2.95
2018-03-20T11:52:00.033Z,3.04
2018-03-20T11:54:00.744Z,2.18
2018-03-20T11:58:01.574Z,2.4
2018-03-20T12:04:02.479Z,3.63
2018-03-20T12:08:03.296Z,2.95
2018-03-20T12:14:04.180Z,3.52
2018-03-20T12:18:04.905Z,3.03
2018-03-20T12:20:05.702Z,3.87
2018-03-20T12:24:06.589Z,3.46
2018-03-20T12:30:07.354Z,3.81
2018-03-20T12:34:08.333Z,3.54
2018-03-20T12:40:09.115Z,4.25
2018-03-20T12:44:10.009Z,3.96
2018-03-20T12:46:10.950Z,4.86
2018-03-20T12:50:11.677Z,4.59
2018-03-20T12:56:12.432Z,5.55
2018-03-20T13:00:13.536Z,5.12
2018-03-20T13:06:14.345Z,5.51
2018-03-20T13:10:15.122Z,5.52
2018-03-20T13:16:15.956Z,5.39
2018-03-20T13:22:16.722Z,6.56
2018-03-20T13:26:17.471Z,6.09
2018-03-20T13:32:18.372Z,7.1
2018-03-20T13:36:19.030Z,7.32
2018-03-20T13:38:19.701Z,7.45
2018-03-20T13:42:20.745Z,7.23
2018-03-20T13:48:21.493Z,8.17
2018-03-20T13:52:22.258Z,7.05
2018-03-20T13:58:23.027Z,7.4
2018-03-20T14:02:23.773Z,6.89
2018-03-20T14:04:24.437Z,7.15
2018-03-20T14:08:25.333Z,6.98
2018-03-20T14:14:26.175Z,5.87
2018-03-20T14:18:27.036Z,5.82
2018-03-20T14:24:27.826Z,5.59
2018-03-20T14:28:28.631Z,5.79
2018-03-20T14:30:29.888Z,5.47
2018-03-20T14:34:30.772Z,5.13
2018-03-20T14:40:31.671Z,4.18
2018-03-20T14:44:32.388Z,3.67
2018-03-20T14:50:33.327Z,3.46
2018-03-20T14:54:34.332Z,3.95
2018-03-20T15:00:35.107Z,3.47
2018-03-20T15:06:36.361Z,5.28
2018-03-20T15:10:37.155Z,3.78
2018-03-20T15:16:38.142Z,3.62
2018-03-20T15:20:38.932Z,3.9
2018-03-20T15:26:39.713Z,3.78
2018-03-20T15:32:40.689Z,5.16
2018-03-20T15:36:41.432Z,5.13
2018-03-20T15:42:42.459Z,6.09
2018-03-20T15:46:43.206Z,5.41
2018-03-20T15:52:44.134Z,6.3
2018-03-20T15:58:44.877Z,6.44
2018-03-20T16:02:47.428Z,6.37
2018-03-20T16:08:48.364Z,7.89
2018-03-20T16:12:49.189Z,8.01
2018-03-20T16:18:49.831Z,7.06
2018-03-20T16:24:50.846Z,6.79
2018-03-20T16:28:51.640Z,7.2
2018-03-20T16:34:52.519Z,9.26
2018-03-20T16:38:53.249Z,8.99
2018-03-20T16:44:54.064Z,9.46
2018-03-20T16:50:54.905Z,10.78
2018-03-20T16:54:55.633Z,11.21
2018-03-20T17:00:56.537Z,10.85
2018-03-20T17:04:57.396Z,11.26
2018-03-20T17:10:58.217Z,11.3
2018-03-20T17:16:59.139Z,10.61
2018-03-20T17:20:59.977Z,10.57
2018-03-20T17:27:00.802Z,9.91
2018-03-20T17:31:02.020Z,9.43
2018-03-20T17:37:02.664Z,9.27
2018-03-20T17:43:03.528Z,9.24
2018-03-20T17:47:04.364Z,9.28
2018-03-20T17:53:05.270Z,8.06
2018-03-20T17:57:06.193Z,7.46
2018-03-20T18:03:06.987Z,7.83
2018-03-20T18:09:07.832Z,8.76
2018-03-20T18:13:08.684Z,7.82
2018-03-20T18:19:09.597Z,9.08
2018-03-20T18:23:10.296Z,8.69
2018-03-20T18:29:11.185Z,9.71
2018-03-20T18:35:12.581Z,10.8
2018-03-20T18:39:13.634Z,10.07
2018-03-20T18:45:15.293Z,10.09
2018-03-20T18:49:16.255Z,10.17
2018-03-20T18:55:17.199Z,11.65
2018-03-20T19:01:18.009Z,8.94
2018-03-20T19:05:18.712Z,9.09
2018-03-20T19:11:19.513Z,9.21
2018-03-20T19:15:20.529Z,8.21
2018-03-20T19:21:21.353Z,9.02
2018-03-20T19:27:22.048Z,8.02
2018-03-20T19:31:23.457Z,7.77
2018-03-20T19:37:24.374Z,5.47
2018-03-20T19:41:25.103Z,5.67
2018-03-20T19:47:25.931Z,5.14
2018-03-20T19:53:26.961Z,2.88
2018-03-20T19:57:27.783Z,2.48
2018-03-20T20:03:28.535Z,1.98
2018-03-20T20:07:30.872Z,1.83
2018-03-20T20:13:31.673Z,2.08
2018-03-20T20:19:32.482Z,2.06
2018-03-20T20:23:33.310Z,1.91
2018-03-20T20:29:34.200Z,2.55
2018-03-20T20:33:34.932Z,3.34
2018-03-20T20:39:35.851Z,2.15
2018-03-20T20:45:36.558Z,1.07
2018-03-20T20:49:37.282Z,0.91
2018-03-20T20:55:38.234Z,0.81
2018-03-20T20:59:39.027Z,0.6
2018-03-20T21:05:39.883Z,0.83
2018-03-20T21:11:41.233Z,0.96
2018-03-20T21:15:42.201Z,1.03
2018-03-20T21:21:42.907Z,0.83
2018-03-20T21:25:44.076Z,0.61
2018-03-20T21:31:47.803Z,0.74
2018-03-20T21:37:49.381Z,0.66
2018-03-20T21:41:55.894Z,0.54
2018-03-20T21:47:56.828Z,0.73
2018-03-20T21:51:58.476Z,0.48
2018-03-20T21:57:59.256Z,0.79
2018-03-20T22:02:00.005Z,0.6
2018-03-20T22:04:00.688Z,0.78
2018-03-20T22:08:01.729Z,0.91
2018-03-20T22:14:02.841Z,0.71
2018-03-20T22:18:03.647Z,0.67
2018-03-20T22:24:04.467Z,0.71
2018-03-20T22:28:05.244Z,0.6
2018-03-20T22:30:06.011Z,0.65
2018-03-20T22:34:06.842Z,0.51
2018-03-20T22:40:07.558Z,0.88
2018-03-20T22:44:08.390Z,0.52
2018-03-20T22:50:09.132Z,0.66
2018-03-20T22:54:10.053Z,0.52
2018-03-20T22:56:10.790Z,0.74
2018-03-20T23:00:11.688Z,0.66
2018-03-20T23:06:12.529Z,0.83
2018-03-20T23:10:13.270Z,0.57
2018-03-20T23:16:14.112Z,0.67
2018-03-20T23:20:14.852Z,0.55
2018-03-20T23:22:15.511Z,0.6
2018-03-20T23:26:16.344Z,0.53
2018-03-20T23:32:17.094Z,0.72
2018-03-20T23:36:17.889Z,0.48
2018-03-20T23:42:18.658Z,0.74
2018-03-20T23:46:19.347Z,0.51
2018-03-20T23:48:20.106Z,0.68
2018-03-20T23:52:20.873Z,0.6
2018-03-20T23:58:21.567Z,0.84
